sensor_id;sensor_type;location;lat;lon;timestamp;P1;durP1;ratioP1;P2;durP2;ratioP2
73951;SDS011;62304;47.662;18.324;2023-03-07T00:00:48;38.78;;;16.40;;
73951;SDS011;62304;47.662;18.324;2023-03-07T00:03:51;37.67;;;17.25;;
73951;SDS011;62304;47.662;18.324;2023-03-07T00:06:54;39.15;;;17.35;;
73951;SDS011;62304;47.662;18.324;2023-03-07T00:09:58;37.20;;;16.17;;
73951;SDS011;62304;47.662;18.324;2023-03-07T00:13:01;36.42;;;16.67;;
73951;SDS011;62304;47.662;18.324;2023-03-07T00:16:07;42.60;;;18.02;;
73951;SDS011;62304;47.662;18.324;2023-03-07T00:19:13;36.03;;;16.15;;
73951;SDS011;62304;47.662;18.324;2023-03-07T00:22:16;40.15;;;17.70;;
73951;SDS011;62304;47.662;18.324;2023-03-07T00:25:19;38.10;;;17.07;;
73951;SDS011;62304;47.662;18.324;2023-03-07T00:28:22;40.88;;;16.87;;
73951;SDS011;62304;47.662;18.324;2023-03-07T00:31:24;43.67;;;18.17;;
73951;SDS011;62304;47.662;18.324;2023-03-07T00:34:28;40.35;;;17.60;;
73951;SDS011;62304;47.662;18.324;2023-03-07T00:37:30;35.20;;;15.73;;
73951;SDS011;62304;47.662;18.324;2023-03-07T00:40:34;39.20;;;17.13;;
73951;SDS011;62304;47.662;18.324;2023-03-07T00:43:37;39.17;;;17.47;;
73951;SDS011;62304;47.662;18.324;2023-03-07T00:46:41;36.83;;;16.98;;
73951;SDS011;62304;47.662;18.324;2023-03-07T00:49:44;38.83;;;17.52;;
73951;SDS011;62304;47.662;18.324;2023-03-07T00:52:47;41.08;;;17.27;;
73951;SDS011;62304;47.662;18.324;2023-03-07T00:55:57;36.77;;;16.13;;
73951;SDS011;62304;47.662;18.324;2023-03-07T00:59:05;37.03;;;16.30;;
73951;SDS011;62304;47.662;18.324;2023-03-07T01:02:09;36.10;;;16.48;;
73951;SDS011;62304;47.662;18.324;2023-03-07T01:05:12;36.92;;;16.77;;
73951;SDS011;62304;47.662;18.324;2023-03-07T01:08:15;40.53;;;17.25;;
73951;SDS011;62304;47.662;18.324;2023-03-07T01:11:20;34.33;;;17.30;;
73951;SDS011;62304;47.662;18.324;2023-03-07T01:14:22;38.28;;;16.73;;
73951;SDS011;62304;47.662;18.324;2023-03-07T01:17:26;42.83;;;18.73;;
73951;SDS011;62304;47.662;18.324;2023-03-07T01:20:30;39.88;;;17.08;;
73951;SDS011;62304;47.662;18.324;2023-03-07T01:23:34;41.55;;;17.50;;
73951;SDS011;62304;47.662;18.324;2023-03-07T01:26:37;42.77;;;17.53;;
73951;SDS011;62304;47.662;18.324;2023-03-07T01:29:40;40.15;;;16.80;;
73951;SDS011;62304;47.662;18.324;2023-03-07T01:32:43;39.72;;;17.55;;
73951;SDS011;62304;47.662;18.324;2023-03-07T01:35:47;43.25;;;16.52;;
73951;SDS011;62304;47.662;18.324;2023-03-07T01:38:52;40.22;;;16.52;;
73951;SDS011;62304;47.662;18.324;2023-03-07T01:41:57;39.07;;;16.60;;
73951;SDS011;62304;47.662;18.324;2023-03-07T01:48:16;40.47;;;16.55;;
73951;SDS011;62304;47.662;18.324;2023-03-07T01:51:20;35.92;;;15.70;;
73951;SDS011;62304;47.662;18.324;2023-03-07T01:54:24;36.25;;;15.95;;
73951;SDS011;62304;47.662;18.324;2023-03-07T01:57:30;36.67;;;16.47;;
73951;SDS011;62304;47.662;18.324;2023-03-07T02:00:39;38.28;;;16.23;;
73951;SDS011;62304;47.662;18.324;2023-03-07T02:03:48;44.50;;;16.20;;
73951;SDS011;62304;47.662;18.324;2023-03-07T02:06:55;33.58;;;15.15;;
73951;SDS011;62304;47.662;18.324;2023-03-07T02:09:58;36.13;;;15.80;;
73951;SDS011;62304;47.662;18.324;2023-03-07T02:13:03;38.28;;;16.27;;
73951;SDS011;62304;47.662;18.324;2023-03-07T02:16:07;40.97;;;16.60;;
73951;SDS011;62304;47.662;18.324;2023-03-07T02:19:15;35.13;;;16.85;;
73951;SDS011;62304;47.662;18.324;2023-03-07T02:22:22;41.08;;;16.85;;
73951;SDS011;62304;47.662;18.324;2023-03-07T02:28:35;37.63;;;16.52;;
73951;SDS011;62304;47.662;18.324;2023-03-07T02:31:39;37.38;;;17.05;;
73951;SDS011;62304;47.662;18.324;2023-03-07T02:34:42;34.05;;;15.77;;
73951;SDS011;62304;47.662;18.324;2023-03-07T02:37:47;32.50;;;14.63;;
73951;SDS011;62304;47.662;18.324;2023-03-07T02:40:54;36.13;;;16.23;;
73951;SDS011;62304;47.662;18.324;2023-03-07T02:43:59;35.70;;;16.08;;
73951;SDS011;62304;47.662;18.324;2023-03-07T02:47:02;39.35;;;16.35;;
73951;SDS011;62304;47.662;18.324;2023-03-07T02:50:07;64.20;;;26.20;;
73951;SDS011;62304;47.662;18.324;2023-03-07T02:53:11;39.60;;;17.17;;
73951;SDS011;62304;47.662;18.324;2023-03-07T02:56:14;39.00;;;16.73;;
73951;SDS011;62304;47.662;18.324;2023-03-07T02:59:17;36.35;;;16.75;;
73951;SDS011;62304;47.662;18.324;2023-03-07T03:02:21;44.40;;;17.48;;
73951;SDS011;62304;47.662;18.324;2023-03-07T03:05:24;41.70;;;17.87;;
73951;SDS011;62304;47.662;18.324;2023-03-07T03:08:27;43.30;;;17.70;;
73951;SDS011;62304;47.662;18.324;2023-03-07T03:11:30;40.38;;;18.23;;
73951;SDS011;62304;47.662;18.324;2023-03-07T03:14:33;43.87;;;17.45;;
73951;SDS011;62304;47.662;18.324;2023-03-07T03:17:36;39.67;;;17.08;;
73951;SDS011;62304;47.662;18.324;2023-03-07T03:20:40;44.42;;;20.80;;
73951;SDS011;62304;47.662;18.324;2023-03-07T03:23:46;41.83;;;16.97;;
73951;SDS011;62304;47.662;18.324;2023-03-07T03:26:49;42.70;;;18.23;;
73951;SDS011;62304;47.662;18.324;2023-03-07T03:29:55;37.90;;;16.40;;
73951;SDS011;62304;47.662;18.324;2023-03-07T03:32:58;37.22;;;16.67;;
73951;SDS011;62304;47.662;18.324;2023-03-07T03:36:07;35.70;;;15.73;;
73951;SDS011;62304;47.662;18.324;2023-03-07T03:39:13;34.43;;;16.57;;
73951;SDS011;62304;47.662;18.324;2023-03-07T03:42:17;38.40;;;15.95;;
73951;SDS011;62304;47.662;18.324;2023-03-07T03:45:21;39.10;;;17.65;;
73951;SDS011;62304;47.662;18.324;2023-03-07T03:48:24;39.80;;;15.98;;
73951;SDS011;62304;47.662;18.324;2023-03-07T03:51:28;44.93;;;17.23;;
73951;SDS011;62304;47.662;18.324;2023-03-07T03:54:32;41.95;;;17.95;;
73951;SDS011;62304;47.662;18.324;2023-03-07T03:57:35;38.20;;;16.58;;
73951;SDS011;62304;47.662;18.324;2023-03-07T04:00:40;37.35;;;17.15;;
73951;SDS011;62304;47.662;18.324;2023-03-07T04:03:44;36.42;;;15.30;;
73951;SDS011;62304;47.662;18.324;2023-03-07T04:06:49;42.30;;;18.33;;
73951;SDS011;62304;47.662;18.324;2023-03-07T04:09:52;35.03;;;16.40;;
73951;SDS011;62304;47.662;18.324;2023-03-07T04:12:55;39.55;;;16.17;;
73951;SDS011;62304;47.662;18.324;2023-03-07T04:15:59;34.97;;;15.13;;
73951;SDS011;62304;47.662;18.324;2023-03-07T04:19:03;36.53;;;14.98;;
73951;SDS011;62304;47.662;18.324;2023-03-07T04:22:06;34.27;;;13.30;;
73951;SDS011;62304;47.662;18.324;2023-03-07T04:25:12;85.53;;;23.65;;
73951;SDS011;62304;47.662;18.324;2023-03-07T04:28:16;46.72;;;16.12;;
73951;SDS011;62304;47.662;18.324;2023-03-07T04:31:23;31.67;;;13.55;;
73951;SDS011;62304;47.662;18.324;2023-03-07T04:34:28;35.17;;;14.17;;
73951;SDS011;62304;47.662;18.324;2023-03-07T04:37:31;34.80;;;14.18;;
73951;SDS011;62304;47.662;18.324;2023-03-07T04:40:34;61.85;;;19.67;;
73951;SDS011;62304;47.662;18.324;2023-03-07T04:43:37;50.45;;;18.83;;
73951;SDS011;62304;47.662;18.324;2023-03-07T04:46:40;61.77;;;20.63;;
73951;SDS011;62304;47.662;18.324;2023-03-07T04:49:43;83.18;;;24.70;;
73951;SDS011;62304;47.662;18.324;2023-03-07T04:52:47;47.20;;;17.17;;
73951;SDS011;62304;47.662;18.324;2023-03-07T04:55:58;52.08;;;17.52;;
73951;SDS011;62304;47.662;18.324;2023-03-07T04:59:04;53.08;;;17.42;;
73951;SDS011;62304;47.662;18.324;2023-03-07T05:02:11;116.43;;;27.37;;
73951;SDS011;62304;47.662;18.324;2023-03-07T05:05:15;112.28;;;30.20;;
73951;SDS011;62304;47.662;18.324;2023-03-07T05:08:19;160.05;;;34.88;;
73951;SDS011;62304;47.662;18.324;2023-03-07T05:11:23;46.70;;;16.73;;
73951;SDS011;62304;47.662;18.324;2023-03-07T05:14:27;63.33;;;19.93;;
73951;SDS011;62304;47.662;18.324;2023-03-07T05:17:30;87.45;;;25.20;;
73951;SDS011;62304;47.662;18.324;2023-03-07T05:20:33;77.28;;;22.70;;
73951;SDS011;62304;47.662;18.324;2023-03-07T05:23:37;67.22;;;21.62;;
73951;SDS011;62304;47.662;18.324;2023-03-07T05:26:40;65.85;;;22.33;;
73951;SDS011;62304;47.662;18.324;2023-03-07T05:29:44;40.63;;;15.97;;
73951;SDS011;62304;47.662;18.324;2023-03-07T05:32:46;48.92;;;18.73;;
73951;SDS011;62304;47.662;18.324;2023-03-07T05:35:50;68.87;;;24.65;;
73951;SDS011;62304;47.662;18.324;2023-03-07T05:38:53;73.78;;;26.90;;
73951;SDS011;62304;47.662;18.324;2023-03-07T05:41:58;56.80;;;20.97;;
73951;SDS011;62304;47.662;18.324;2023-03-07T05:45:02;57.47;;;20.75;;
73951;SDS011;62304;47.662;18.324;2023-03-07T05:48:07;43.63;;;16.23;;
73951;SDS011;62304;47.662;18.324;2023-03-07T05:51:11;44.15;;;17.67;;
73951;SDS011;62304;47.662;18.324;2023-03-07T05:54:14;61.33;;;21.80;;
73951;SDS011;62304;47.662;18.324;2023-03-07T05:57:18;87.50;;;29.77;;
73951;SDS011;62304;47.662;18.324;2023-03-07T06:00:21;110.90;;;40.22;;
73951;SDS011;62304;47.662;18.324;2023-03-07T06:03:26;112.35;;;35.22;;
73951;SDS011;62304;47.662;18.324;2023-03-07T06:06:29;50.42;;;22.37;;
73951;SDS011;62304;47.662;18.324;2023-03-07T06:09:32;47.77;;;18.93;;
73951;SDS011;62304;47.662;18.324;2023-03-07T06:12:35;54.13;;;20.65;;
73951;SDS011;62304;47.662;18.324;2023-03-07T06:15:38;69.35;;;27.33;;
73951;SDS011;62304;47.662;18.324;2023-03-07T06:18:41;108.00;;;33.00;;
73951;SDS011;62304;47.662;18.324;2023-03-07T06:21:45;76.40;;;26.60;;
73951;SDS011;62304;47.662;18.324;2023-03-07T06:24:48;74.73;;;27.47;;
73951;SDS011;62304;47.662;18.324;2023-03-07T06:27:51;79.00;;;29.40;;
73951;SDS011;62304;47.662;18.324;2023-03-07T06:30:55;78.00;;;29.05;;
73951;SDS011;62304;47.662;18.324;2023-03-07T06:33:59;83.00;;;33.58;;
73951;SDS011;62304;47.662;18.324;2023-03-07T06:37:02;82.07;;;33.13;;
73951;SDS011;62304;47.662;18.324;2023-03-07T06:40:06;61.27;;;27.80;;
73951;SDS011;62304;47.662;18.324;2023-03-07T06:43:13;59.75;;;26.87;;
73951;SDS011;62304;47.662;18.324;2023-03-07T06:46:17;53.35;;;23.10;;
73951;SDS011;62304;47.662;18.324;2023-03-07T06:49:22;50.30;;;22.42;;
73951;SDS011;62304;47.662;18.324;2023-03-07T06:52:26;58.55;;;19.20;;
73951;SDS011;62304;47.662;18.324;2023-03-07T06:55:29;50.00;;;21.80;;
73951;SDS011;62304;47.662;18.324;2023-03-07T06:58:32;50.90;;;20.85;;
73951;SDS011;62304;47.662;18.324;2023-03-07T07:01:36;52.92;;;23.30;;
73951;SDS011;62304;47.662;18.324;2023-03-07T07:04:39;57.70;;;23.02;;
73951;SDS011;62304;47.662;18.324;2023-03-07T07:07:42;53.97;;;21.50;;
73951;SDS011;62304;47.662;18.324;2023-03-07T07:10:46;48.53;;;20.97;;
73951;SDS011;62304;47.662;18.324;2023-03-07T07:13:49;48.60;;;20.50;;
73951;SDS011;62304;47.662;18.324;2023-03-07T07:16:53;52.45;;;20.45;;
73951;SDS011;62304;47.662;18.324;2023-03-07T07:19:55;51.47;;;20.55;;
73951;SDS011;62304;47.662;18.324;2023-03-07T07:23:00;45.53;;;20.37;;
73951;SDS011;62304;47.662;18.324;2023-03-07T07:26:04;51.50;;;21.20;;
73951;SDS011;62304;47.662;18.324;2023-03-07T07:29:10;44.60;;;20.08;;
73951;SDS011;62304;47.662;18.324;2023-03-07T07:32:13;43.08;;;19.10;;
73951;SDS011;62304;47.662;18.324;2023-03-07T07:35:17;40.90;;;19.00;;
73951;SDS011;62304;47.662;18.324;2023-03-07T07:38:21;39.20;;;17.80;;
73951;SDS011;62304;47.662;18.324;2023-03-07T07:41:24;42.47;;;18.50;;
73951;SDS011;62304;47.662;18.324;2023-03-07T07:44:28;36.53;;;16.20;;
73951;SDS011;62304;47.662;18.324;2023-03-07T07:47:32;40.80;;;19.08;;
73951;SDS011;62304;47.662;18.324;2023-03-07T07:50:36;35.25;;;14.85;;
73951;SDS011;62304;47.662;18.324;2023-03-07T07:53:39;42.38;;;18.17;;
73951;SDS011;62304;47.662;18.324;2023-03-07T07:56:42;40.70;;;18.20;;
73951;SDS011;62304;47.662;18.324;2023-03-07T07:59:46;42.70;;;20.77;;
73951;SDS011;62304;47.662;18.324;2023-03-07T08:02:49;43.05;;;17.27;;
73951;SDS011;62304;47.662;18.324;2023-03-07T08:05:53;40.75;;;18.95;;
73951;SDS011;62304;47.662;18.324;2023-03-07T08:08:56;33.03;;;16.25;;
73951;SDS011;62304;47.662;18.324;2023-03-07T08:12:01;42.13;;;18.47;;
73951;SDS011;62304;47.662;18.324;2023-03-07T08:15:04;54.88;;;20.45;;
73951;SDS011;62304;47.662;18.324;2023-03-07T08:18:08;46.60;;;20.40;;
73951;SDS011;62304;47.662;18.324;2023-03-07T08:21:13;49.30;;;18.73;;
73951;SDS011;62304;47.662;18.324;2023-03-07T08:24:17;36.90;;;16.67;;
73951;SDS011;62304;47.662;18.324;2023-03-07T08:27:21;46.40;;;19.43;;
73951;SDS011;62304;47.662;18.324;2023-03-07T08:30:25;38.75;;;15.85;;
73951;SDS011;62304;47.662;18.324;2023-03-07T08:33:31;31.30;;;12.68;;
73951;SDS011;62304;47.662;18.324;2023-03-07T08:36:34;34.65;;;15.43;;
73951;SDS011;62304;47.662;18.324;2023-03-07T08:39:37;44.97;;;17.60;;
73951;SDS011;62304;47.662;18.324;2023-03-07T08:42:41;34.00;;;16.52;;
73951;SDS011;62304;47.662;18.324;2023-03-07T08:45:44;27.65;;;13.50;;
73951;SDS011;62304;47.662;18.324;2023-03-07T08:48:47;14.43;;;7.00;;
73951;SDS011;62304;47.662;18.324;2023-03-07T08:51:50;24.67;;;10.52;;
73951;SDS011;62304;47.662;18.324;2023-03-07T08:54:53;30.73;;;13.30;;
73951;SDS011;62304;47.662;18.324;2023-03-07T08:57:56;29.40;;;12.18;;
73951;SDS011;62304;47.662;18.324;2023-03-07T09:00:59;22.55;;;10.15;;
73951;SDS011;62304;47.662;18.324;2023-03-07T09:04:02;26.87;;;11.98;;
73951;SDS011;62304;47.662;18.324;2023-03-07T09:07:06;26.73;;;12.48;;
73951;SDS011;62304;47.662;18.324;2023-03-07T09:10:09;26.90;;;11.17;;
73951;SDS011;62304;47.662;18.324;2023-03-07T09:13:13;26.58;;;11.52;;
73951;SDS011;62304;47.662;18.324;2023-03-07T09:16:19;21.50;;;9.80;;
73951;SDS011;62304;47.662;18.324;2023-03-07T09:19:23;26.15;;;11.23;;
73951;SDS011;62304;47.662;18.324;2023-03-07T09:22:27;23.98;;;8.40;;
73951;SDS011;62304;47.662;18.324;2023-03-07T09:25:30;24.87;;;10.77;;
73951;SDS011;62304;47.662;18.324;2023-03-07T09:28:33;19.27;;;7.93;;
73951;SDS011;62304;47.662;18.324;2023-03-07T09:31:36;21.25;;;8.32;;
73951;SDS011;62304;47.662;18.324;2023-03-07T09:34:39;25.12;;;9.25;;
73951;SDS011;62304;47.662;18.324;2023-03-07T09:37:44;19.25;;;7.35;;
73951;SDS011;62304;47.662;18.324;2023-03-07T09:40:51;16.43;;;7.00;;
73951;SDS011;62304;47.662;18.324;2023-03-07T09:44:13;19.45;;;7.95;;
73951;SDS011;62304;47.662;18.324;2023-03-07T09:50:53;25.40;;;11.02;;
73951;SDS011;62304;47.662;18.324;2023-03-07T09:57:34;21.13;;;8.70;;
73951;SDS011;62304;47.662;18.324;2023-03-07T10:00:42;13.50;;;7.43;;
73951;SDS011;62304;47.662;18.324;2023-03-07T10:03:50;8.98;;;3.87;;
73951;SDS011;62304;47.662;18.324;2023-03-07T10:06:59;13.13;;;5.65;;
73951;SDS011;62304;47.662;18.324;2023-03-07T10:10:16;12.07;;;4.45;;
73951;SDS011;62304;47.662;18.324;2023-03-07T10:13:36;6.90;;;3.37;;
73951;SDS011;62304;47.662;18.324;2023-03-07T10:17:10;10.65;;;4.40;;
73951;SDS011;62304;47.662;18.324;2023-03-07T10:24:32;9.60;;;4.43;;
73951;SDS011;62304;47.662;18.324;2023-03-07T10:27:17;7.55;;;3.08;;
73951;SDS011;62304;47.662;18.324;2023-03-07T10:30:24;9.40;;;4.20;;
73951;SDS011;62304;47.662;18.324;2023-03-07T10:33:27;11.75;;;4.10;;
73951;SDS011;62304;47.662;18.324;2023-03-07T10:42:54;13.75;;;5.43;;
73951;SDS011;62304;47.662;18.324;2023-03-07T10:49:27;13.38;;;4.97;;
73951;SDS011;62304;47.662;18.324;2023-03-07T10:55:43;14.27;;;5.80;;
73951;SDS011;62304;47.662;18.324;2023-03-07T10:58:57;8.73;;;2.58;;
73951;SDS011;62304;47.662;18.324;2023-03-07T11:02:01;14.00;;;4.37;;
73951;SDS011;62304;47.662;18.324;2023-03-07T11:05:31;9.70;;;3.90;;
73951;SDS011;62304;47.662;18.324;2023-03-07T11:08:35;12.18;;;3.80;;
73951;SDS011;62304;47.662;18.324;2023-03-07T11:11:38;9.90;;;3.90;;
73951;SDS011;62304;47.662;18.324;2023-03-07T11:14:45;12.35;;;5.60;;
73951;SDS011;62304;47.662;18.324;2023-03-07T11:17:52;19.13;;;7.80;;
73951;SDS011;62304;47.662;18.324;2023-03-07T11:20:56;14.10;;;6.43;;
73951;SDS011;62304;47.662;18.324;2023-03-07T11:24:01;8.07;;;4.03;;
73951;SDS011;62304;47.662;18.324;2023-03-07T11:27:17;17.67;;;6.93;;
73951;SDS011;62304;47.662;18.324;2023-03-07T11:30:25;12.80;;;5.40;;
73951;SDS011;62304;47.662;18.324;2023-03-07T11:37:23;15.52;;;6.57;;
73951;SDS011;62304;47.662;18.324;2023-03-07T11:47:49;12.45;;;5.22;;
73951;SDS011;62304;47.662;18.324;2023-03-07T11:51:00;15.23;;;6.00;;
73951;SDS011;62304;47.662;18.324;2023-03-07T12:11:03;13.73;;;6.57;;
73951;SDS011;62304;47.662;18.324;2023-03-07T12:14:16;15.13;;;6.87;;
73951;SDS011;62304;47.662;18.324;2023-03-07T12:17:27;15.52;;;6.60;;
73951;SDS011;62304;47.662;18.324;2023-03-07T12:27:57;15.57;;;6.60;;
73951;SDS011;62304;47.662;18.324;2023-03-07T12:31:33;17.67;;;7.62;;
73951;SDS011;62304;47.662;18.324;2023-03-07T12:34:46;11.10;;;5.35;;
73951;SDS011;62304;47.662;18.324;2023-03-07T12:54:38;14.40;;;6.45;;
73951;SDS011;62304;47.662;18.324;2023-03-07T12:57:49;12.97;;;6.43;;
73951;SDS011;62304;47.662;18.324;2023-03-07T13:01:02;21.65;;;10.82;;
73951;SDS011;62304;47.662;18.324;2023-03-07T13:07:28;16.15;;;7.00;;
73951;SDS011;62304;47.662;18.324;2023-03-07T13:10:34;20.33;;;10.50;;
73951;SDS011;62304;47.662;18.324;2023-03-07T13:16:45;14.07;;;7.40;;
73951;SDS011;62304;47.662;18.324;2023-03-07T13:19:52;17.05;;;7.50;;
73951;SDS011;62304;47.662;18.324;2023-03-07T13:22:58;13.98;;;6.95;;
73951;SDS011;62304;47.662;18.324;2023-03-07T13:26:12;19.75;;;8.65;;
73951;SDS011;62304;47.662;18.324;2023-03-07T13:33:27;13.80;;;7.93;;
73951;SDS011;62304;47.662;18.324;2023-03-07T13:36:35;17.10;;;8.38;;
73951;SDS011;62304;47.662;18.324;2023-03-07T13:39:40;15.50;;;7.43;;
73951;SDS011;62304;47.662;18.324;2023-03-07T13:46:49;12.97;;;6.53;;
73951;SDS011;62304;47.662;18.324;2023-03-07T13:49:54;11.80;;;6.20;;
73951;SDS011;62304;47.662;18.324;2023-03-07T13:52:57;13.73;;;6.05;;
73951;SDS011;62304;47.662;18.324;2023-03-07T13:59:19;14.48;;;6.07;;
73951;SDS011;62304;47.662;18.324;2023-03-07T14:02:29;15.03;;;7.03;;
73951;SDS011;62304;47.662;18.324;2023-03-07T14:05:32;10.95;;;4.70;;
73951;SDS011;62304;47.662;18.324;2023-03-07T14:08:36;14.70;;;7.28;;
73951;SDS011;62304;47.662;18.324;2023-03-07T14:21:56;16.65;;;8.23;;
73951;SDS011;62304;47.662;18.324;2023-03-07T14:25:10;20.73;;;10.43;;
73951;SDS011;62304;47.662;18.324;2023-03-07T14:31:25;15.60;;;6.87;;
73951;SDS011;62304;47.662;18.324;2023-03-07T14:34:37;12.90;;;6.63;;
73951;SDS011;62304;47.662;18.324;2023-03-07T14:37:50;11.85;;;6.15;;
73951;SDS011;62304;47.662;18.324;2023-03-07T14:50:59;13.57;;;6.63;;
73951;SDS011;62304;47.662;18.324;2023-03-07T14:54:13;13.93;;;6.80;;
73951;SDS011;62304;47.662;18.324;2023-03-07T14:57:30;25.90;;;9.80;;
73951;SDS011;62304;47.662;18.324;2023-03-07T15:00:36;20.23;;;7.87;;
73951;SDS011;62304;47.662;18.324;2023-03-07T15:03:46;15.15;;;7.55;;
73951;SDS011;62304;47.662;18.324;2023-03-07T15:06:55;17.73;;;6.60;;
73951;SDS011;62304;47.662;18.324;2023-03-07T15:10:10;15.48;;;6.22;;
73951;SDS011;62304;47.662;18.324;2023-03-07T15:13:22;19.45;;;8.38;;
73951;SDS011;62304;47.662;18.324;2023-03-07T15:16:32;38.22;;;23.15;;
73951;SDS011;62304;47.662;18.324;2023-03-07T15:19:45;14.70;;;6.15;;
73951;SDS011;62304;47.662;18.324;2023-03-07T15:23:19;16.57;;;6.90;;
73951;SDS011;62304;47.662;18.324;2023-03-07T15:26:25;20.42;;;10.85;;
73951;SDS011;62304;47.662;18.324;2023-03-07T15:29:29;19.33;;;8.85;;
73951;SDS011;62304;47.662;18.324;2023-03-07T15:35:39;23.23;;;9.82;;
73951;SDS011;62304;47.662;18.324;2023-03-07T15:38:43;19.27;;;6.57;;
73951;SDS011;62304;47.662;18.324;2023-03-07T15:41:57;15.10;;;7.18;;
73951;SDS011;62304;47.662;18.324;2023-03-07T15:45:02;18.08;;;7.28;;
73951;SDS011;62304;47.662;18.324;2023-03-07T15:51:35;20.62;;;8.18;;
73951;SDS011;62304;47.662;18.324;2023-03-07T15:54:40;26.03;;;10.83;;
73951;SDS011;62304;47.662;18.324;2023-03-07T15:57:51;24.77;;;10.10;;
73951;SDS011;62304;47.662;18.324;2023-03-07T16:01:04;17.25;;;7.72;;
73951;SDS011;62304;47.662;18.324;2023-03-07T16:07:46;25.37;;;9.95;;
73951;SDS011;62304;47.662;18.324;2023-03-07T16:10:59;19.10;;;9.40;;
73951;SDS011;62304;47.662;18.324;2023-03-07T16:14:04;22.77;;;8.77;;
73951;SDS011;62304;47.662;18.324;2023-03-07T16:17:17;23.10;;;8.75;;
73951;SDS011;62304;47.662;18.324;2023-03-07T16:20:26;19.75;;;8.18;;
73951;SDS011;62304;47.662;18.324;2023-03-07T16:23:30;22.55;;;10.95;;
73951;SDS011;62304;47.662;18.324;2023-03-07T16:26:35;18.63;;;7.20;;
73951;SDS011;62304;47.662;18.324;2023-03-07T16:29:39;21.80;;;7.60;;
73951;SDS011;62304;47.662;18.324;2023-03-07T16:32:42;19.77;;;8.32;;
73951;SDS011;62304;47.662;18.324;2023-03-07T16:35:46;15.60;;;6.12;;
73951;SDS011;62304;47.662;18.324;2023-03-07T16:38:50;11.70;;;4.68;;
73951;SDS011;62304;47.662;18.324;2023-03-07T16:41:54;16.40;;;7.30;;
73951;SDS011;62304;47.662;18.324;2023-03-07T16:44:56;12.60;;;5.40;;
73951;SDS011;62304;47.662;18.324;2023-03-07T16:47:59;18.40;;;8.07;;
73951;SDS011;62304;47.662;18.324;2023-03-07T16:51:11;11.10;;;6.07;;
73951;SDS011;62304;47.662;18.324;2023-03-07T16:54:23;13.13;;;6.32;;
73951;SDS011;62304;47.662;18.324;2023-03-07T16:57:26;11.33;;;5.43;;
73951;SDS011;62304;47.662;18.324;2023-03-07T17:00:30;15.65;;;7.93;;
73951;SDS011;62304;47.662;18.324;2023-03-07T17:03:33;20.75;;;9.05;;
73951;SDS011;62304;47.662;18.324;2023-03-07T17:06:36;13.30;;;6.72;;
73951;SDS011;62304;47.662;18.324;2023-03-07T17:09:41;17.87;;;7.90;;
73951;SDS011;62304;47.662;18.324;2023-03-07T17:12:44;12.27;;;5.67;;
73951;SDS011;62304;47.662;18.324;2023-03-07T17:15:48;22.30;;;7.75;;
73951;SDS011;62304;47.662;18.324;2023-03-07T17:18:58;8.40;;;4.15;;
73951;SDS011;62304;47.662;18.324;2023-03-07T17:22:01;15.82;;;5.43;;
73951;SDS011;62304;47.662;18.324;2023-03-07T17:25:06;17.98;;;9.23;;
73951;SDS011;62304;47.662;18.324;2023-03-07T17:28:12;11.67;;;3.93;;
73951;SDS011;62304;47.662;18.324;2023-03-07T17:31:17;19.50;;;9.23;;
73951;SDS011;62304;47.662;18.324;2023-03-07T17:34:38;14.87;;;6.25;;
73951;SDS011;62304;47.662;18.324;2023-03-07T17:37:47;19.27;;;7.95;;
73951;SDS011;62304;47.662;18.324;2023-03-07T17:40:52;10.23;;;4.57;;
73951;SDS011;62304;47.662;18.324;2023-03-07T17:43:57;17.60;;;7.23;;
73951;SDS011;62304;47.662;18.324;2023-03-07T17:47:01;11.43;;;4.47;;
73951;SDS011;62304;47.662;18.324;2023-03-07T17:50:08;16.75;;;7.28;;
73951;SDS011;62304;47.662;18.324;2023-03-07T17:53:12;13.23;;;6.90;;
73951;SDS011;62304;47.662;18.324;2023-03-07T17:56:16;19.30;;;7.43;;
73951;SDS011;62304;47.662;18.324;2023-03-07T17:59:20;18.03;;;8.53;;
73951;SDS011;62304;47.662;18.324;2023-03-07T18:02:25;18.62;;;7.82;;
73951;SDS011;62304;47.662;18.324;2023-03-07T18:05:30;19.30;;;9.38;;
73951;SDS011;62304;47.662;18.324;2023-03-07T18:08:35;11.85;;;5.35;;
73951;SDS011;62304;47.662;18.324;2023-03-07T18:11:40;22.50;;;8.18;;
73951;SDS011;62304;47.662;18.324;2023-03-07T18:14:44;14.20;;;5.53;;
73951;SDS011;62304;47.662;18.324;2023-03-07T18:17:57;13.60;;;5.20;;
73951;SDS011;62304;47.662;18.324;2023-03-07T18:21:07;18.25;;;7.57;;
73951;SDS011;62304;47.662;18.324;2023-03-07T18:24:18;15.98;;;6.82;;
73951;SDS011;62304;47.662;18.324;2023-03-07T18:27:24;19.62;;;7.53;;
73951;SDS011;62304;47.662;18.324;2023-03-07T18:30:29;19.53;;;8.10;;
73951;SDS011;62304;47.662;18.324;2023-03-07T18:33:38;22.80;;;8.40;;
73951;SDS011;62304;47.662;18.324;2023-03-07T18:36:43;21.65;;;8.20;;
73951;SDS011;62304;47.662;18.324;2023-03-07T18:39:47;20.45;;;7.97;;
73951;SDS011;62304;47.662;18.324;2023-03-07T18:42:52;18.55;;;8.38;;
73951;SDS011;62304;47.662;18.324;2023-03-07T18:45:57;37.37;;;15.70;;
73951;SDS011;62304;47.662;18.324;2023-03-07T18:49:02;12.65;;;6.57;;
73951;SDS011;62304;47.662;18.324;2023-03-07T18:52:07;17.92;;;7.62;;
73951;SDS011;62304;47.662;18.324;2023-03-07T18:55:12;20.75;;;8.27;;
73951;SDS011;62304;47.662;18.324;2023-03-07T18:58:16;22.40;;;9.02;;
73951;SDS011;62304;47.662;18.324;2023-03-07T19:01:31;20.43;;;7.93;;
73951;SDS011;62304;47.662;18.324;2023-03-07T19:04:37;10.20;;;4.90;;
73951;SDS011;62304;47.662;18.324;2023-03-07T19:07:41;16.62;;;6.55;;
73951;SDS011;62304;47.662;18.324;2023-03-07T19:10:46;17.10;;;7.05;;
73951;SDS011;62304;47.662;18.324;2023-03-07T19:13:51;17.08;;;6.72;;
73951;SDS011;62304;47.662;18.324;2023-03-07T19:16:54;20.17;;;7.53;;
73951;SDS011;62304;47.662;18.324;2023-03-07T19:20:03;14.73;;;6.03;;
73951;SDS011;62304;47.662;18.324;2023-03-07T19:23:08;25.98;;;10.48;;
73951;SDS011;62304;47.662;18.324;2023-03-07T19:26:14;13.55;;;4.97;;
73951;SDS011;62304;47.662;18.324;2023-03-07T19:29:20;24.37;;;8.98;;
73951;SDS011;62304;47.662;18.324;2023-03-07T19:32:26;23.33;;;8.30;;
73951;SDS011;62304;47.662;18.324;2023-03-07T19:35:32;29.20;;;11.73;;
73951;SDS011;62304;47.662;18.324;2023-03-07T19:38:37;23.52;;;8.93;;
73951;SDS011;62304;47.662;18.324;2023-03-07T19:41:46;27.30;;;10.50;;
73951;SDS011;62304;47.662;18.324;2023-03-07T19:44:53;26.67;;;10.18;;
73951;SDS011;62304;47.662;18.324;2023-03-07T19:47:57;23.13;;;11.37;;
73951;SDS011;62304;47.662;18.324;2023-03-07T19:51:02;23.02;;;10.07;;
73951;SDS011;62304;47.662;18.324;2023-03-07T19:54:08;22.92;;;8.73;;
73951;SDS011;62304;47.662;18.324;2023-03-07T19:57:16;25.55;;;11.00;;
73951;SDS011;62304;47.662;18.324;2023-03-07T20:00:21;24.00;;;9.65;;
73951;SDS011;62304;47.662;18.324;2023-03-07T20:03:25;16.00;;;6.60;;
73951;SDS011;62304;47.662;18.324;2023-03-07T20:06:30;20.35;;;8.60;;
73951;SDS011;62304;47.662;18.324;2023-03-07T20:09:35;15.65;;;7.72;;